sensor_id;sensor_type;location;lat;lon;timestamp;temperature;humidity
27978;DHT22;15314;49.248;6.968;2023-04-24T00:00:09;11.10;99.90
27978;DHT22;15314;49.248;6.968;2023-04-24T00:01:10;11.20;99.90
27978;DHT22;15314;49.248;6.968;2023-04-24T00:02:11;11.10;99.90
27978;DHT22;15314;49.248;6.968;2023-04-24T00:03:11;11.10;99.90
27978;DHT22;15314;49.248;6.968;2023-04-24T00:04:13;11.10;99.90
27978;DHT22;15314;49.248;6.968;2023-04-24T00:05:17;11.10;99.90
27978;DHT22;15314;49.248;6.968;2023-04-24T00:06:17;11.10;99.90
27978;DHT22;15314;49.248;6.968;2023-04-24T00:07:18;11.10;99.90
27978;DHT22;15314;49.248;6.968;2023-04-24T00:08:20;11.10;99.90
27978;DHT22;15314;49.248;6.968;2023-04-24T00:09:21;11.20;99.90
27978;DHT22;15314;49.248;6.968;2023-04-24T00:10:22;11.20;99.90
27978;DHT22;15314;49.248;6.968;2023-04-24T00:11:23;11.20;99.90
27978;DHT22;15314;49.248;6.968;2023-04-24T00:12:24;11.10;99.90
27978;DHT22;15314;49.248;6.968;2023-04-24T00:13:24;11.10;99.90
27978;DHT22;15314;49.248;6.968;2023-04-24T00:14:25;11.10;99.90
27978;DHT22;15314;49.248;6.968;2023-04-24T00:15:26;11.10;99.90
27978;DHT22;15314;49.248;6.968;2023-04-24T00:16:27;11.10;99.90
27978;DHT22;15314;49.248;6.968;2023-04-24T00:17:28;11.10;99.90
27978;DHT22;15314;49.248;6.968;2023-04-24T00:18:28;11.10;99.90
27978;DHT22;15314;49.248;6.968;2023-04-24T00:19:29;11.10;99.90
27978;DHT22;15314;49.248;6.968;2023-04-24T00:20:30;11.00;99.90
27978;DHT22;15314;49.248;6.968;2023-04-24T00:21:32;11.00;99.90
27978;DHT22;15314;49.248;6.968;2023-04-24T00:22:34;11.00;99.90
27978;DHT22;15314;49.248;6.968;2023-04-24T00:23:34;11.00;99.90
27978;DHT22;15314;49.248;6.968;2023-04-24T00:24:35;11.00;99.90
27978;DHT22;15314;49.248;6.968;2023-04-24T00:25:36;11.00;99.90
27978;DHT22;15314;49.248;6.968;2023-04-24T00:26:36;11.10;99.90
27978;DHT22;15314;49.248;6.968;2023-04-24T00:27:37;11.10;99.90
27978;DHT22;15314;49.248;6.968;2023-04-24T00:28:39;11.10;99.90
27978;DHT22;15314;49.248;6.968;2023-04-24T00:29:39;11.00;99.90
27978;DHT22;15314;49.248;6.968;2023-04-24T00:30:40;11.00;99.90
27978;DHT22;15314;49.248;6.968;2023-04-24T00:31:41;11.00;99.90
27978;DHT22;15314;49.248;6.968;2023-04-24T00:32:41;10.90;99.90
27978;DHT22;15314;49.248;6.968;2023-04-24T00:33:42;10.80;99.90
27978;DHT22;15314;49.248;6.968;2023-04-24T00:34:43;10.80;99.90
27978;DHT22;15314;49.248;6.968;2023-04-24T00:35:43;10.80;99.90
27978;DHT22;15314;49.248;6.968;2023-04-24T00:36:44;10.80;99.90
27978;DHT22;15314;49.248;6.968;2023-04-24T00:37:45;10.80;99.90
27978;DHT22;15314;49.248;6.968;2023-04-24T00:38:46;10.80;99.90
27978;DHT22;15314;49.248;6.968;2023-04-24T00:39:47;10.70;99.90
27978;DHT22;15314;49.248;6.968;2023-04-24T00:40:48;10.80;99.90
27978;DHT22;15314;49.248;6.968;2023-04-24T00:41:51;10.80;99.90
27978;DHT22;15314;49.248;6.968;2023-04-24T00:42:51;10.80;99.90
27978;DHT22;15314;49.248;6.968;2023-04-24T00:43:53;10.70;99.90
27978;DHT22;15314;49.248;6.968;2023-04-24T00:44:53;10.70;99.90
27978;DHT22;15314;49.248;6.968;2023-04-24T00:45:54;10.70;99.90
27978;DHT22;15314;49.248;6.968;2023-04-24T00:46:55;10.60;99.90
27978;DHT22;15314;49.248;6.968;2023-04-24T00:47:56;10.60;99.90
27978;DHT22;15314;49.248;6.968;2023-04-24T00:48:59;10.60;99.90
27978;DHT22;15314;49.248;6.968;2023-04-24T00:50:04;10.70;99.90
27978;DHT22;15314;49.248;6.968;2023-04-24T00:51:06;10.70;99.90
27978;DHT22;15314;49.248;6.968;2023-04-24T00:52:07;10.80;99.90
27978;DHT22;15314;49.248;6.968;2023-04-24T00:53:09;10.80;99.90
27978;DHT22;15314;49.248;6.968;2023-04-24T00:54:09;10.80;99.90
27978;DHT22;15314;49.248;6.968;2023-04-24T00:55:10;10.70;99.90
27978;DHT22;15314;49.248;6.968;2023-04-24T00:56:11;10.70;99.90
27978;DHT22;15314;49.248;6.968;2023-04-24T00:57:13;10.70;99.90
27978;DHT22;15314;49.248;6.968;2023-04-24T00:58:15;10.70;99.90
27978;DHT22;15314;49.248;6.968;2023-04-24T00:59:16;10.60;99.90
27978;DHT22;15314;49.248;6.968;2023-04-24T01:00:18;10.60;99.90
27978;DHT22;15314;49.248;6.968;2023-04-24T01:01:20;10.60;99.90
27978;DHT22;15314;49.248;6.968;2023-04-24T01:02:21;10.60;99.90
27978;DHT22;15314;49.248;6.968;2023-04-24T01:03:28;10.60;99.90
27978;DHT22;15314;49.248;6.968;2023-04-24T01:04:29;10.50;99.90
27978;DHT22;15314;49.248;6.968;2023-04-24T01:05:30;10.50;99.90
27978;DHT22;15314;49.248;6.968;2023-04-24T01:06:31;10.50;99.90
27978;DHT22;15314;49.248;6.968;2023-04-24T01:07:32;10.60;99.90
27978;DHT22;15314;49.248;6.968;2023-04-24T01:08:33;10.50;99.90
27978;DHT22;15314;49.248;6.968;2023-04-24T01:09:38;10.40;99.90
27978;DHT22;15314;49.248;6.968;2023-04-24T01:10:41;10.40;99.90
27978;DHT22;15314;49.248;6.968;2023-04-24T01:11:42;10.40;99.90
27978;DHT22;15314;49.248;6.968;2023-04-24T01:12:43;10.40;99.90
27978;DHT22;15314;49.248;6.968;2023-04-24T01:13:44;10.40;99.90
27978;DHT22;15314;49.248;6.968;2023-04-24T01:14:46;10.40;99.90
27978;DHT22;15314;49.248;6.968;2023-04-24T01:15:47;10.30;99.90
27978;DHT22;15314;49.248;6.968;2023-04-24T01:16:48;10.30;99.90
27978;DHT22;15314;49.248;6.968;2023-04-24T01:17:48;10.30;99.90
27978;DHT22;15314;49.248;6.968;2023-04-24T01:18:49;10.30;99.90
27978;DHT22;15314;49.248;6.968;2023-04-24T01:19:50;10.30;99.90
27978;DHT22;15314;49.248;6.968;2023-04-24T01:20:57;10.30;99.90
27978;DHT22;15314;49.248;6.968;2023-04-24T01:22:02;10.30;99.90
27978;DHT22;15314;49.248;6.968;2023-04-24T01:23:03;10.30;99.90
27978;DHT22;15314;49.248;6.968;2023-04-24T01:24:04;10.40;99.90
27978;DHT22;15314;49.248;6.968;2023-04-24T01:25:06;10.40;99.90
27978;DHT22;15314;49.248;6.968;2023-04-24T01:26:07;10.40;99.90
27978;DHT22;15314;49.248;6.968;2023-04-24T01:27:09;10.40;99.90
27978;DHT22;15314;49.248;6.968;2023-04-24T01:28:10;10.50;99.90
27978;DHT22;15314;49.248;6.968;2023-04-24T01:29:11;10.40;99.90
27978;DHT22;15314;49.248;6.968;2023-04-24T01:30:13;10.50;99.90
27978;DHT22;15314;49.248;6.968;2023-04-24T01:31:15;10.50;99.90
27978;DHT22;15314;49.248;6.968;2023-04-24T01:32:15;10.40;99.90
27978;DHT22;15314;49.248;6.968;2023-04-24T01:33:17;10.50;99.90
27978;DHT22;15314;49.248;6.968;2023-04-24T01:34:18;10.50;99.90
27978;DHT22;15314;49.248;6.968;2023-04-24T01:35:19;10.40;99.90
27978;DHT22;15314;49.248;6.968;2023-04-24T01:36:21;10.40;99.90
27978;DHT22;15314;49.248;6.968;2023-04-24T01:37:22;10.40;99.90
27978;DHT22;15314;49.248;6.968;2023-04-24T01:38:22;10.40;99.90
27978;DHT22;15314;49.248;6.968;2023-04-24T01:39:23;10.30;99.90
27978;DHT22;15314;49.248;6.968;2023-04-24T01:40:26;10.40;99.90
27978;DHT22;15314;49.248;6.968;2023-04-24T01:41:26;10.40;99.90
27978;DHT22;15314;49.248;6.968;2023-04-24T01:42:27;10.40;99.90
27978;DHT22;15314;49.248;6.968;2023-04-24T01:43:29;10.40;99.90
27978;DHT22;15314;49.248;6.968;2023-04-24T01:44:30;10.40;99.90
27978;DHT22;15314;49.248;6.968;2023-04-24T01:45:31;10.40;99.90
27978;DHT22;15314;49.248;6.968;2023-04-24T01:46:32;10.30;99.90
27978;DHT22;15314;49.248;6.968;2023-04-24T01:47:35;10.30;99.90
27978;DHT22;15314;49.248;6.968;2023-04-24T01:48:35;10.30;99.90
27978;DHT22;15314;49.248;6.968;2023-04-24T01:49:38;10.20;99.90
27978;DHT22;15314;49.248;6.968;2023-04-24T01:50:39;10.20;99.90
27978;DHT22;15314;49.248;6.968;2023-04-24T01:51:40;10.20;99.90
27978;DHT22;15314;49.248;6.968;2023-04-24T01:52:41;10.20;99.90
27978;DHT22;15314;49.248;6.968;2023-04-24T01:53:41;10.20;99.90
27978;DHT22;15314;49.248;6.968;2023-04-24T01:54:42;10.20;99.90
27978;DHT22;15314;49.248;6.968;2023-04-24T01:55:43;10.10;99.90
27978;DHT22;15314;49.248;6.968;2023-04-24T01:56:44;10.20;99.90
27978;DHT22;15314;49.248;6.968;2023-04-24T01:57:45;10.20;99.90
27978;DHT22;15314;49.248;6.968;2023-04-24T01:58:46;10.20;99.90
27978;DHT22;15314;49.248;6.968;2023-04-24T01:59:47;10.20;99.90
27978;DHT22;15314;49.248;6.968;2023-04-24T02:00:47;10.10;99.90
27978;DHT22;15314;49.248;6.968;2023-04-24T02:01:48;10.10;99.90
27978;DHT22;15314;49.248;6.968;2023-04-24T02:02:49;10.10;99.90
27978;DHT22;15314;49.248;6.968;2023-04-24T02:03:49;10.10;99.90
27978;DHT22;15314;49.248;6.968;2023-04-24T02:04:50;10.20;99.90
27978;DHT22;15314;49.248;6.968;2023-04-24T02:05:51;10.20;99.90
27978;DHT22;15314;49.248;6.968;2023-04-24T02:06:52;10.20;99.90
27978;DHT22;15314;49.248;6.968;2023-04-24T02:07:52;10.20;99.90
27978;DHT22;15314;49.248;6.968;2023-04-24T02:08:53;10.20;99.90
27978;DHT22;15314;49.248;6.968;2023-04-24T02:09:54;10.20;99.90
27978;DHT22;15314;49.248;6.968;2023-04-24T02:10:55;10.20;99.90
27978;DHT22;15314;49.248;6.968;2023-04-24T02:11:56;10.20;99.90
27978;DHT22;15314;49.248;6.968;2023-04-24T02:12:57;10.20;99.90
27978;DHT22;15314;49.248;6.968;2023-04-24T02:14:00;10.10;99.90
27978;DHT22;15314;49.248;6.968;2023-04-24T02:15:00;10.10;99.90
27978;DHT22;15314;49.248;6.968;2023-04-24T02:16:01;10.00;99.90
27978;DHT22;15314;49.248;6.968;2023-04-24T02:17:02;9.90;99.90
27978;DHT22;15314;49.248;6.968;2023-04-24T02:18:02;9.90;99.90
27978;DHT22;15314;49.248;6.968;2023-04-24T02:19:03;9.90;99.90
27978;DHT22;15314;49.248;6.968;2023-04-24T02:20:05;9.90;99.90
27978;DHT22;15314;49.248;6.968;2023-04-24T02:21:06;9.80;99.90
27978;DHT22;15314;49.248;6.968;2023-04-24T02:22:07;9.70;99.90
27978;DHT22;15314;49.248;6.968;2023-04-24T02:23:08;9.60;99.90
27978;DHT22;15314;49.248;6.968;2023-04-24T02:24:09;9.60;99.90
27978;DHT22;15314;49.248;6.968;2023-04-24T02:25:09;9.60;99.90
27978;DHT22;15314;49.248;6.968;2023-04-24T02:26:10;9.50;99.90
27978;DHT22;15314;49.248;6.968;2023-04-24T02:27:11;9.40;99.90
27978;DHT22;15314;49.248;6.968;2023-04-24T02:28:12;9.40;99.90
27978;DHT22;15314;49.248;6.968;2023-04-24T02:29:12;9.30;99.90
27978;DHT22;15314;49.248;6.968;2023-04-24T02:30:13;9.30;99.90
27978;DHT22;15314;49.248;6.968;2023-04-24T02:31:14;9.20;99.90
27978;DHT22;15314;49.248;6.968;2023-04-24T02:32:15;9.20;99.90
27978;DHT22;15314;49.248;6.968;2023-04-24T02:33:16;9.10;99.90
27978;DHT22;15314;49.248;6.968;2023-04-24T02:34:17;9.10;99.90
27978;DHT22;15314;49.248;6.968;2023-04-24T02:35:17;9.20;99.90
27978;DHT22;15314;49.248;6.968;2023-04-24T02:36:18;9.10;99.90
27978;DHT22;15314;49.248;6.968;2023-04-24T02:37:19;9.10;99.90
27978;DHT22;15314;49.248;6.968;2023-04-24T02:38:19;9.10;99.90
27978;DHT22;15314;49.248;6.968;2023-04-24T02:39:20;9.10;99.90
27978;DHT22;15314;49.248;6.968;2023-04-24T02:40:21;9.10;99.90
27978;DHT22;15314;49.248;6.968;2023-04-24T02:41:22;9.00;99.90
27978;DHT22;15314;49.248;6.968;2023-04-24T02:42:22;9.00;99.90
27978;DHT22;15314;49.248;6.968;2023-04-24T02:43:23;9.00;99.90
27978;DHT22;15314;49.248;6.968;2023-04-24T02:44:24;9.10;99.90
27978;DHT22;15314;49.248;6.968;2023-04-24T02:45:24;9.00;99.90
27978;DHT22;15314;49.248;6.968;2023-04-24T02:46:26;8.90;99.90
27978;DHT22;15314;49.248;6.968;2023-04-24T02:47:26;8.90;99.90
27978;DHT22;15314;49.248;6.968;2023-04-24T02:48:27;8.90;99.90
27978;DHT22;15314;49.248;6.968;2023-04-24T02:49:28;8.90;99.90
27978;DHT22;15314;49.248;6.968;2023-04-24T02:50:28;8.90;99.90
27978;DHT22;15314;49.248;6.968;2023-04-24T02:51:29;8.90;99.90
27978;DHT22;15314;49.248;6.968;2023-04-24T02:52:30;8.90;99.90
27978;DHT22;15314;49.248;6.968;2023-04-24T02:53:31;8.90;99.90
27978;DHT22;15314;49.248;6.968;2023-04-24T02:54:31;9.10;99.90
27978;DHT22;15314;49.248;6.968;2023-04-24T02:55:32;9.00;99.90
27978;DHT22;15314;49.248;6.968;2023-04-24T02:56:33;9.00;99.90
27978;DHT22;15314;49.248;6.968;2023-04-24T02:57:34;9.00;99.90
27978;DHT22;15314;49.248;6.968;2023-04-24T02:58:35;9.00;99.90
27978;DHT22;15314;49.248;6.968;2023-04-24T02:59:35;9.10;99.90
27978;DHT22;15314;49.248;6.968;2023-04-24T03:00:36;9.10;99.90
27978;DHT22;15314;49.248;6.968;2023-04-24T03:01:37;9.10;99.90
27978;DHT22;15314;49.248;6.968;2023-04-24T03:02:37;9.10;99.90
27978;DHT22;15314;49.248;6.968;2023-04-24T03:03:39;9.10;99.90
27978;DHT22;15314;49.248;6.968;2023-04-24T03:04:40;9.20;99.90
27978;DHT22;15314;49.248;6.968;2023-04-24T03:05:40;9.20;99.90
27978;DHT22;15314;49.248;6.968;2023-04-24T03:06:41;9.30;99.90
27978;DHT22;15314;49.248;6.968;2023-04-24T03:07:42;9.20;99.90
27978;DHT22;15314;49.248;6.968;2023-04-24T03:08:42;9.40;99.90
27978;DHT22;15314;49.248;6.968;2023-04-24T03:09:43;9.30;99.90
27978;DHT22;15314;49.248;6.968;2023-04-24T03:10:44;9.30;99.90
27978;DHT22;15314;49.248;6.968;2023-04-24T03:11:44;9.40;99.90
27978;DHT22;15314;49.248;6.968;2023-04-24T03:12:45;9.40;99.90
27978;DHT22;15314;49.248;6.968;2023-04-24T03:13:46;9.40;99.90
27978;DHT22;15314;49.248;6.968;2023-04-24T03:14:46;9.40;99.90
27978;DHT22;15314;49.248;6.968;2023-04-24T03:15:47;9.50;99.90
27978;DHT22;15314;49.248;6.968;2023-04-24T03:16:48;9.50;99.90
27978;DHT22;15314;49.248;6.968;2023-04-24T03:17:48;9.50;99.90
27978;DHT22;15314;49.248;6.968;2023-04-24T03:18:49;9.50;99.90
27978;DHT22;15314;49.248;6.968;2023-04-24T03:19:50;9.50;99.90
27978;DHT22;15314;49.248;6.968;2023-04-24T03:20:51;9.50;99.90
27978;DHT22;15314;49.248;6.968;2023-04-24T03:21:51;9.60;99.90
27978;DHT22;15314;49.248;6.968;2023-04-24T03:22:52;9.60;99.90
27978;DHT22;15314;49.248;6.968;2023-04-24T03:23:53;9.60;99.90
27978;DHT22;15314;49.248;6.968;2023-04-24T03:24:53;9.60;99.90
27978;DHT22;15314;49.248;6.968;2023-04-24T03:25:57;9.60;99.90
27978;DHT22;15314;49.248;6.968;2023-04-24T03:26:57;9.60;99.90
27978;DHT22;15314;49.248;6.968;2023-04-24T03:27:58;9.60;99.90
27978;DHT22;15314;49.248;6.968;2023-04-24T03:28:59;9.60;99.90
27978;DHT22;15314;49.248;6.968;2023-04-24T03:29:59;9.60;99.90
27978;DHT22;15314;49.248;6.968;2023-04-24T03:31:02;9.60;99.90
27978;DHT22;15314;49.248;6.968;2023-04-24T03:32:02;9.60;99.90
27978;DHT22;15314;49.248;6.968;2023-04-24T03:33:03;9.60;99.90
27978;DHT22;15314;49.248;6.968;2023-04-24T03:34:04;9.60;99.90
27978;DHT22;15314;49.248;6.968;2023-04-24T03:35:06;9.50;99.90
27978;DHT22;15314;49.248;6.968;2023-04-24T03:36:08;9.50;99.90
27978;DHT22;15314;49.248;6.968;2023-04-24T03:37:09;9.50;99.90
27978;DHT22;15314;49.248;6.968;2023-04-24T03:38:10;9.50;99.90
27978;DHT22;15314;49.248;6.968;2023-04-24T03:39:11;9.50;99.90
27978;DHT22;15314;49.248;6.968;2023-04-24T03:40:12;9.50;99.90
27978;DHT22;15314;49.248;6.968;2023-04-24T03:41:12;9.40;99.90
27978;DHT22;15314;49.248;6.968;2023-04-24T03:42:13;9.40;99.90
27978;DHT22;15314;49.248;6.968;2023-04-24T03:43:14;9.40;99.90
27978;DHT22;15314;49.248;6.968;2023-04-24T03:44:15;9.50;99.90
27978;DHT22;15314;49.248;6.968;2023-04-24T03:45:15;9.50;99.90
27978;DHT22;15314;49.248;6.968;2023-04-24T03:46:16;9.50;99.90
27978;DHT22;15314;49.248;6.968;2023-04-24T03:47:17;9.50;99.90
27978;DHT22;15314;49.248;6.968;2023-04-24T03:48:17;9.50;99.90
27978;DHT22;15314;49.248;6.968;2023-04-24T03:49:18;9.40;99.90
27978;DHT22;15314;49.248;6.968;2023-04-24T03:50:19;9.40;99.90
27978;DHT22;15314;49.248;6.968;2023-04-24T03:51:20;9.40;99.90
27978;DHT22;15314;49.248;6.968;2023-04-24T03:52:22;9.40;99.90
27978;DHT22;15314;49.248;6.968;2023-04-24T03:53:22;9.40;99.90
27978;DHT22;15314;49.248;6.968;2023-04-24T03:54:23;9.40;99.90
27978;DHT22;15314;49.248;6.968;2023-04-24T03:55:24;9.40;99.90
27978;DHT22;15314;49.248;6.968;2023-04-24T03:56:25;9.40;99.90
27978;DHT22;15314;49.248;6.968;2023-04-24T03:57:25;9.40;99.90
27978;DHT22;15314;49.248;6.968;2023-04-24T03:58:26;9.40;99.90
27978;DHT22;15314;49.248;6.968;2023-04-24T03:59:27;9.40;99.90
27978;DHT22;15314;49.248;6.968;2023-04-24T04:00:27;9.40;99.90
27978;DHT22;15314;49.248;6.968;2023-04-24T04:01:28;9.40;99.90
27978;DHT22;15314;49.248;6.968;2023-04-24T04:02:29;9.40;99.90
27978;DHT22;15314;49.248;6.968;2023-04-24T04:03:30;9.40;99.90
27978;DHT22;15314;49.248;6.968;2023-04-24T04:04:30;9.30;99.90
27978;DHT22;15314;49.248;6.968;2023-04-24T04:05:31;9.40;99.90
27978;DHT22;15314;49.248;6.968;2023-04-24T04:06:32;9.40;99.90
27978;DHT22;15314;49.248;6.968;2023-04-24T04:07:33;9.50;99.90
27978;DHT22;15314;49.248;6.968;2023-04-24T04:08:34;9.50;99.90
27978;DHT22;15314;49.248;6.968;2023-04-24T04:09:34;9.50;99.90
27978;DHT22;15314;49.248;6.968;2023-04-24T04:10:35;9.50;99.90
27978;DHT22;15314;49.248;6.968;2023-04-24T04:11:36;9.40;99.90
27978;DHT22;15314;49.248;6.968;2023-04-24T04:12:37;9.30;99.90
27978;DHT22;15314;49.248;6.968;2023-04-24T04:13:38;9.30;99.90
27978;DHT22;15314;49.248;6.968;2023-04-24T04:14:39;9.30;99.90
27978;DHT22;15314;49.248;6.968;2023-04-24T04:15:40;9.30;99.90
27978;DHT22;15314;49.248;6.968;2023-04-24T04:16:41;9.30;99.90
27978;DHT22;15314;49.248;6.968;2023-04-24T04:17:42;9.30;99.90
27978;DHT22;15314;49.248;6.968;2023-04-24T04:18:43;9.40;99.90
27978;DHT22;15314;49.248;6.968;2023-04-24T04:19:44;9.30;99.90
27978;DHT22;15314;49.248;6.968;2023-04-24T04:20:45;9.40;99.90
27978;DHT22;15314;49.248;6.968;2023-04-24T04:21:45;9.40;99.90
27978;DHT22;15314;49.248;6.968;2023-04-24T04:22:46;9.50;99.90
27978;DHT22;15314;49.248;6.968;2023-04-24T04:23:47;9.50;99.90
27978;DHT22;15314;49.248;6.968;2023-04-24T04:24:48;9.40;99.90
27978;DHT22;15314;49.248;6.968;2023-04-24T04:25:51;9.40;99.90
27978;DHT22;15314;49.248;6.968;2023-04-24T04:26:52;9.40;99.90
27978;DHT22;15314;49.248;6.968;2023-04-24T04:27:52;9.40;99.90
27978;DHT22;15314;49.248;6.968;2023-04-24T04:28:54;9.40;99.90
27978;DHT22;15314;49.248;6.968;2023-04-24T04:29:54;9.40;99.90
27978;DHT22;15314;49.248;6.968;2023-04-24T04:30:57;9.50;99.90
27978;DHT22;15314;49.248;6.968;2023-04-24T04:31:58;9.40;99.90
27978;DHT22;15314;49.248;6.968;2023-04-24T04:32:59;9.40;99.90
27978;DHT22;15314;49.248;6.968;2023-04-24T04:33:59;9.40;99.90
27978;DHT22;15314;49.248;6.968;2023-04-24T04:35:02;9.50;99.90
27978;DHT22;15314;49.248;6.968;2023-04-24T04:36:03;9.50;99.90
27978;DHT22;15314;49.248;6.968;2023-04-24T04:37:04;9.50;99.90
27978;DHT22;15314;49.248;6.968;2023-04-24T04:38:05;9.50;99.90
27978;DHT22;15314;49.248;6.968;2023-04-24T04:39:08;9.50;99.90
27978;DHT22;15314;49.248;6.968;2023-04-24T04:40:09;9.60;99.90
27978;DHT22;15314;49.248;6.968;2023-04-24T04:41:12;9.60;99.90
27978;DHT22;15314;49.248;6.968;2023-04-24T04:42:12;9.60;99.90
27978;DHT22;15314;49.248;6.968;2023-04-24T04:43:14;9.60;99.90
27978;DHT22;15314;49.248;6.968;2023-04-24T04:44:16;9.50;99.90
27978;DHT22;15314;49.248;6.968;2023-04-24T04:45:17;9.70;99.90
27978;DHT22;15314;49.248;6.968;2023-04-24T04:46:19;9.60;99.90
27978;DHT22;15314;49.248;6.968;2023-04-24T04:47:21;9.60;99.90
27978;DHT22;15314;49.248;6.968;2023-04-24T04:48:25;9.60;99.90
27978;DHT22;15314;49.248;6.968;2023-04-24T04:49:25;9.60;99.90
27978;DHT22;15314;49.248;6.968;2023-04-24T04:50:28;9.60;99.90
27978;DHT22;15314;49.248;6.968;2023-04-24T04:51:29;9.60;99.90
27978;DHT22;15314;49.248;6.968;2023-04-24T04:52:31;9.60;99.90
27978;DHT22;15314;49.248;6.968;2023-04-24T04:53:32;9.50;99.90
27978;DHT22;15314;49.248;6.968;2023-04-24T04:54:32;9.50;99.90
27978;DHT22;15314;49.248;6.968;2023-04-24T04:55:33;9.50;99.90
27978;DHT22;15314;49.248;6.968;2023-04-24T04:56:34;9.50;99.90
27978;DHT22;15314;49.248;6.968;2023-04-24T04:57:34;9.60;99.90
27978;DHT22;15314;49.248;6.968;2023-04-24T04:58:35;9.60;99.90
27978;DHT22;15314;49.248;6.968;2023-04-24T04:59:36;9.60;99.90
27978;DHT22;15314;49.248;6.968;2023-04-24T05:00:37;9.60;99.90
27978;DHT22;15314;49.248;6.968;2023-04-24T05:01:38;9.60;99.90
27978;DHT22;15314;49.248;6.968;2023-04-24T05:02:39;9.50;99.90
27978;DHT22;15314;49.248;6.968;2023-04-24T05:03:39;9.40;99.90
27978;DHT22;15314;49.248;6.968;2023-04-24T05:04:41;9.40;99.90
27978;DHT22;15314;49.248;6.968;2023-04-24T05:05:41;9.40;99.90
27978;DHT22;15314;49.248;6.968;2023-04-24T05:06:42;9.30;99.90
27978;DHT22;15314;49.248;6.968;2023-04-24T05:07:43;9.20;99.90
27978;DHT22;15314;49.248;6.968;2023-04-24T05:08:44;9.20;99.90
27978;DHT22;15314;49.248;6.968;2023-04-24T05:09:45;9.20;99.90
27978;DHT22;15314;49.248;6.968;2023-04-24T05:10:45;9.20;99.90
27978;DHT22;15314;49.248;6.968;2023-04-24T05:11:46;9.20;99.90
27978;DHT22;15314;49.248;6.968;2023-04-24T05:12:47;9.20;99.90
27978;DHT22;15314;49.248;6.968;2023-04-24T05:13:47;9.20;99.90
27978;DHT22;15314;49.248;6.968;2023-04-24T05:14:48;9.20;99.90
27978;DHT22;15314;49.248;6.968;2023-04-24T05:15:49;9.30;99.90
27978;DHT22;15314;49.248;6.968;2023-04-24T05:16:49;9.30;99.90
27978;DHT22;15314;49.248;6.968;2023-04-24T05:17:50;9.30;99.90
27978;DHT22;15314;49.248;6.968;2023-04-24T05:18:51;9.30;99.90
27978;DHT22;15314;49.248;6.968;2023-04-24T05:19:52;9.30;99.90
27978;DHT22;15314;49.248;6.968;2023-04-24T05:20:52;9.40;99.90
27978;DHT22;15314;49.248;6.968;2023-04-24T05:21:53;9.50;99.90
27978;DHT22;15314;49.248;6.968;2023-04-24T05:22:54;9.60;99.90
27978;DHT22;15314;49.248;6.968;2023-04-24T05:23:54;9.70;99.90
27978;DHT22;15314;49.248;6.968;2023-04-24T05:24:55;9.70;99.90
27978;DHT22;15314;49.248;6.968;2023-04-24T05:25:56;9.70;99.90
27978;DHT22;15314;49.248;6.968;2023-04-24T05:26:57;9.60;99.90
27978;DHT22;15314;49.248;6.968;2023-04-24T05:27:59;9.70;99.90
27978;DHT22;15314;49.248;6.968;2023-04-24T05:28:59;9.60;99.90
27978;DHT22;15314;49.248;6.968;2023-04-24T05:30:00;9.60;99.90
27978;DHT22;15314;49.248;6.968;2023-04-24T05:31:01;9.50;99.90
27978;DHT22;15314;49.248;6.968;2023-04-24T05:32:02;9.50;99.90
27978;DHT22;15314;49.248;6.968;2023-04-24T05:33:03;9.50;99.90
27978;DHT22;15314;49.248;6.968;2023-04-24T05:34:04;9.80;99.90
27978;DHT22;15314;49.248;6.968;2023-04-24T05:35:05;10.00;99.90
27978;DHT22;15314;49.248;6.968;2023-04-24T05:36:07;10.10;99.90
27978;DHT22;15314;49.248;6.968;2023-04-24T05:37:10;10.20;99.90
27978;DHT22;15314;49.248;6.968;2023-04-24T05:38:12;10.60;99.90
27978;DHT22;15314;49.248;6.968;2023-04-24T05:39:12;11.00;99.90
27978;DHT22;15314;49.248;6.968;2023-04-24T05:40:13;11.40;99.90
27978;DHT22;15314;49.248;6.968;2023-04-24T05:41:14;11.20;99.90
27978;DHT22;15314;49.248;6.968;2023-04-24T05:42:15;11.20;99.90
27978;DHT22;15314;49.248;6.968;2023-04-24T05:43:16;10.90;99.90
27978;DHT22;15314;49.248;6.968;2023-04-24T05:44:16;10.60;99.90
27978;DHT22;15314;49.248;6.968;2023-04-24T05:45:17;11.00;99.90
27978;DHT22;15314;49.248;6.968;2023-04-24T05:46:18;11.40;99.90
27978;DHT22;15314;49.248;6.968;2023-04-24T05:47:18;11.60;99.90
27978;DHT22;15314;49.248;6.968;2023-04-24T05:48:19;11.70;99.90
27978;DHT22;15314;49.248;6.968;2023-04-24T05:49:20;11.70;99.90
27978;DHT22;15314;49.248;6.968;2023-04-24T05:50:21;11.40;99.90
27978;DHT22;15314;49.248;6.968;2023-04-24T05:51:21;11.30;99.90
27978;DHT22;15314;49.248;6.968;2023-04-24T05:52:22;11.30;99.90
27978;DHT22;15314;49.248;6.968;2023-04-24T05:53:23;11.30;99.90
27978;DHT22;15314;49.248;6.968;2023-04-24T05:54:23;11.30;99.90
27978;DHT22;15314;49.248;6.968;2023-04-24T05:55:25;11.10;99.90
27978;DHT22;15314;49.248;6.968;2023-04-24T05:56:26;11.00;99.90
27978;DHT22;15314;49.248;6.968;2023-04-24T05:57:27;11.20;99.90
27978;DHT22;15314;49.248;6.968;2023-04-24T05:58:27;11.30;99.90
27978;DHT22;15314;49.248;6.968;2023-04-24T05:59:28;11.40;99.90
27978;DHT22;15314;49.248;6.968;2023-04-24T06:00:28;11.70;99.90
27978;DHT22;15314;49.248;6.968;2023-04-24T06:01:29;11.60;99.70
27978;DHT22;15314;49.248;6.968;2023-04-24T06:02:30;11.50;99.90
27978;DHT22;15314;49.248;6.968;2023-04-24T06:03:32;11.40;99.90
27978;DHT22;15314;49.248;6.968;2023-04-24T06:04:33;11.20;99.90
27978;DHT22;15314;49.248;6.968;2023-04-24T06:05:34;11.00;99.90
27978;DHT22;15314;49.248;6.968;2023-04-24T06:06:35;10.90;99.90
27978;DHT22;15314;49.248;6.968;2023-04-24T06:07:36;10.70;99.90
27978;DHT22;15314;49.248;6.968;2023-04-24T06:08:37;10.60;99.90
27978;DHT22;15314;49.248;6.968;2023-04-24T06:09:38;10.60;99.90
27978;DHT22;15314;49.248;6.968;2023-04-24T06:10:38;10.50;99.90
27978;DHT22;15314;49.248;6.968;2023-04-24T06:11:39;10.30;99.90
27978;DHT22;15314;49.248;6.968;2023-04-24T06:12:40;10.40;99.90
27978;DHT22;15314;49.248;6.968;2023-04-24T06:13:41;10.30;99.90
27978;DHT22;15314;49.248;6.968;2023-04-24T06:14:41;10.20;99.90
27978;DHT22;15314;49.248;6.968;2023-04-24T06:15:43;10.20;99.90
27978;DHT22;15314;49.248;6.968;2023-04-24T06:16:43;10.20;99.90
27978;DHT22;15314;49.248;6.968;2023-04-24T06:17:44;10.30;99.90
27978;DHT22;15314;49.248;6.968;2023-04-24T06:18:45;10.30;99.90
27978;DHT22;15314;49.248;6.968;2023-04-24T06:19:47;10.30;99.90
27978;DHT22;15314;49.248;6.968;2023-04-24T06:20:48;10.30;99.90
27978;DHT22;15314;49.248;6.968;2023-04-24T06:21:48;10.30;99.90
27978;DHT22;15314;49.248;6.968;2023-04-24T06:22:50;10.30;99.90
27978;DHT22;15314;49.248;6.968;2023-04-24T06:23:50;10.30;99.90
27978;DHT22;15314;49.248;6.968;2023-04-24T06:24:51;10.20;99.90
27978;DHT22;15314;49.248;6.968;2023-04-24T06:25:52;10.30;99.90
27978;DHT22;15314;49.248;6.968;2023-04-24T06:26:53;10.40;99.90
27978;DHT22;15314;49.248;6.968;2023-04-24T06:27:55;10.30;99.90